Airfield :
LOGIN :

Register | Disclaimer

   EN    FR    IT 

 










Legend :    VFR   Marginal VFR   IFR   Intensive IFR   Very Intensive IFR
Visi :
Ceiling :
>= 8 km
>= 3000ft
5 to 8 km
1000 to 3000 ft
1500m to 5 km
500 to 1000 ft
800 to 1500m
200 to 500 ft
< 800m
< 200 ft
Symbols :   Thunderstorms  Fog  Heavy snow  Heavy precipitations  Wind > 20 kt
SIGMETs :     Misc.  Thunderstorms  Icing  Turbulence  Mountain Waves  Volcanic Ashes






- Airport Elevation : 327 ft
- IATA code : BHX


EGBB - Birmingham

CURRENT METAR :
  • 101020Z 18015G25KT 9999 -RA BKN011 09/07 Q1009 RERA

EXPIRED METARs :
  • 100950Z 18013KT 9999 BKN010 08/07 Q1010
  • 100920Z 17012KT 9999 -RA BKN010 07/06 Q1011
  • 100850Z 18014KT 9999 -RA SCT018 BKN023 07/05 Q1012
  • 100820Z 18014G24KT 9999 -RA FEW030 07/05 Q1012
  • 100750Z 18014KT 9999 FEW012 07/05 Q1013

TAF TAF EGBB
Valid from the 10 at 06:00 until the 11 at 06:00 UTC


100500Z 1006/1106 15008KT CAVOK
PROB30
TEMPO 1006/1008 19015G25KT
BECMG 1008/1010 19017G27KT FEW014 BKN020
TEMPO 1009/1017 19025G40KT 6000 RA BKN012
PROB30
TEMPO 1016/1020 4000 +RA BKN008
BECMG 1017/1020 26015G25KT
BECMG 1020/1023 26008KT
ATIS : +44 121 780 0910



MET'MAP, your aeronautical weather chart ! - Copyright ORBIFLY December 2007 - Disclaimer

ORBIFLY MET'MAP TEAM :

Programming & Development : Alexandra Zaïnal
Concept & original design : Baudouin d'Aumeries
Assistance for programming : Marc-Olivier Méhu
Technical & hardware support : Manuel Goepfert

Contact : metmap@orbifly.com




SOURCES & CREDITS :

   NOAA